Time;durP1;ratioP1;P1;durP2;ratioP2;P2;SDS_P1;SDS_P2;PMS_P1;PMS_P2;Temp;Humidity;BMP_temperature;BMP_pressure;BME280_temperature;BME280_humidity;BME280_pressure;Samples;Min_cycle;Max_cycle;Signal;HPM_P1;HPM_P2
2023/06/21 00:00:13;;;;;;;20.83;14.55;;;;;;;23.31;75.42;97990.84;5073249;28;20555;-73
2023/06/21 00:02:40;;;;;;;14.38;13.15;;;;;;;22.52;75.89;97998.09;5072175;28;20032;-73
2023/06/21 00:05:07;;;;;;;17.65;16.20;;;;;;;21.31;80.32;98008.19;5088278;28;20474;-73
2023/06/21 00:07:32;;;;;;;15.73;14.50;;;;;;;22.40;76.47;98000.72;5071995;28;20033;-73
2023/06/21 00:09:57;;;;;;;15.57;14.05;;;;;;;22.75;74.75;98005.03;5071808;28;20486;-74
2023/06/21 00:12:25;;;;;;;12.30;11.20;;;;;;;22.32;76.40;98012.50;5073023;28;20085;-73
2023/06/21 00:14:50;;;;;;;14.20;13.02;;;;;;;22.32;75.87;98002.31;5071039;28;20052;-72
2023/06/21 00:17:15;;;;;;;13.52;12.38;;;;;;;22.23;76.31;98003.47;5071554;28;20070;-73
2023/06/21 00:19:41;;;;;;;16.33;13.88;;;;;;;22.60;74.35;98002.75;5072151;28;20028;-73
2023/06/21 00:22:06;;;;;;;14.38;13.02;;;;;;;21.94;77.19;98015.09;5059309;28;20115;-74
2023/06/21 00:24:32;;;;;;;15.80;14.55;;;;;;;22.09;76.11;98008.31;5084316;28;20024;-75
2023/06/21 00:26:57;;;;;;;13.88;12.70;;;;;;;22.68;74.68;98000.00;5051429;28;20127;-74
2023/06/21 00:29:22;;;;;;;16.33;13.30;;;;;;;21.54;78.32;98011.63;5051409;28;20020;-71
2023/06/21 00:31:48;;;;;;;20.17;12.40;;;;;;;21.68;78.58;98009.56;5068080;28;20040;-74
2023/06/21 00:34:13;;;;;;;14.68;13.52;;;;;;;21.68;78.06;98015.03;5067306;28;20055;-73
2023/06/21 00:36:41;;;;;;;16.20;14.80;;;;;;;21.43;78.45;98015.78;5068543;28;20029;-73
2023/06/21 00:39:08;;;;;;;15.35;14.05;;;;;;;22.11;76.26;98014.28;5070988;28;20428;-73
2023/06/21 00:41:33;;;;;;;13.38;12.10;;;;;;;21.86;76.99;98022.19;5054459;28;20115;-74
2023/06/21 00:43:58;;;;;;;14.00;12.57;;;;;;;21.76;76.86;98021.66;5054022;28;20124;-74
2023/06/21 00:46:24;;;;;;;14.77;13.30;;;;;;;21.74;77.28;98024.75;5088026;28;20037;-74
2023/06/21 00:48:50;;;;;;;14.63;13.15;;;;;;;21.55;77.76;98037.91;5054829;28;20028;-74
2023/06/21 00:51:16;;;;;;;16.23;13.38;;;;;;;21.86;76.65;98038.66;5054425;28;20036;-75
2023/06/21 00:53:41;;;;;;;14.48;13.18;;;;;;;21.59;77.98;98047.09;5070341;28;20111;-73
2023/06/21 00:56:07;;;;;;;14.57;12.43;;;;;;;21.60;78.32;98042.44;5070857;28;20028;-72
2023/06/21 00:58:33;;;;;;;16.38;13.63;;;;;;;21.28;79.63;98046.41;5054287;28;20119;-74
2023/06/21 01:01:00;;;;;;;16.52;14.23;;;;;;;21.51;78.62;98052.56;5054418;28;20063;-74
2023/06/21 01:03:26;;;;;;;16.35;13.95;;;;;;;21.35;79.49;98053.00;5070367;28;20048;-74
2023/06/21 01:06:04;;;;;;;15.65;13.73;;;;;;;21.46;79.15;98061.75;5070858;28;20032;-73
2023/06/21 01:09:03;;;;;;;15.75;13.82;;;;;;;21.37;79.19;98057.38;5071851;28;20162;-74
2023/06/21 01:11:31;;;;;;;14.15;12.75;;;;;;;21.43;79.56;98051.41;5054359;28;20106;-74
2023/06/21 01:14:05;;;;;;;16.80;14.75;;;;;;;21.48;78.57;98058.69;5036663;28;20074;-72
2023/06/21 01:16:41;;;;;;;13.93;12.15;;;;;;;21.34;78.34;98061.56;5072004;28;20486;-72
2023/06/21 01:19:16;;;;;;;15.18;13.63;;;;;;;21.13;79.14;98060.50;5053780;28;20478;-72
2023/06/21 01:21:42;;;;;;;14.85;13.35;;;;;;;21.21;77.54;98065.22;5053913;28;20153;-73
2023/06/21 01:24:17;;;;;;;14.88;13.05;;;;;;;21.79;76.64;98065.72;5053283;28;20478;-72
2023/06/21 01:27:03;;;;;;;13.85;12.40;;;;;;;21.40;78.05;98063.00;5070677;28;20063;-74
2023/06/21 01:29:35;;;;;;;14.05;11.95;;;;;;;21.45;78.43;98071.09;5070234;28;20071;-73
2023/06/21 01:32:03;;;;;;;14.68;12.48;;;;;;;21.03;78.97;98068.94;5072015;28;20064;-74
2023/06/21 01:34:29;;;;;;;12.65;11.45;;;;;;;20.97;79.48;98065.56;5086833;28;20028;-74
2023/06/21 01:36:56;;;;;;;13.32;11.98;;;;;;;21.12;78.45;98072.59;5090159;28;20060;-75
2023/06/21 01:39:26;;;;;;;15.30;13.68;;;;;;;20.68;79.31;98067.97;5053925;28;20115;-74
2023/06/21 01:41:51;;;;;;;15.65;13.98;;;;;;;20.56;79.08;98075.94;5042257;28;20045;-74
2023/06/21 01:44:17;;;;;;;16.50;14.82;;;;;;;20.70;79.23;98075.88;5087005;28;20527;-74
2023/06/21 01:46:43;;;;;;;16.63;14.35;;;;;;;20.98;78.47;98082.81;5070846;28;20032;-73
2023/06/21 01:49:09;;;;;;;15.50;12.70;;;;;;;21.42;77.02;98093.66;5053836;28;20565;-73
2023/06/21 01:51:39;;;;;;;17.80;14.18;;;;;;;21.57;77.01;98090.47;5057249;28;20127;-74
2023/06/21 01:54:05;;;;;;;15.63;13.30;;;;;;;21.34;77.33;98088.94;5059622;28;20086;-74
2023/06/21 01:56:31;;;;;;;16.65;13.95;;;;;;;21.00;77.88;98099.72;5050440;28;20028;-74
2023/06/21 01:58:56;;;;;;;16.80;14.50;;;;;;;21.08;77.65;98090.75;5077276;28;20119;-74
2023/06/21 02:01:26;;;;;;;17.27;14.38;;;;;;;20.82;79.06;98098.81;5070386;28;20024;-73
2023/06/21 02:03:54;;;;;;;20.48;15.25;;;;;;;20.67;79.38;98096.47;5059539;28;20043;-73
2023/06/21 02:06:21;;;;;;;16.80;15.15;;;;;;;20.90;78.79;98099.97;5063780;28;20535;-73
2023/06/21 02:08:48;;;;;;;15.40;13.63;;;;;;;21.12;78.23;98105.47;5044221;28;20032;-73
2023/06/21 02:11:14;;;;;;;14.27;12.77;;;;;;;21.12;78.21;98100.00;5040234;28;20470;-73
2023/06/21 02:13:39;;;;;;;13.70;12.35;;;;;;;21.19;77.38;98111.31;5059225;28;20055;-73
2023/06/21 02:16:06;;;;;;;15.40;12.52;;;;;;;21.04;77.75;98103.44;5063662;28;20394;-73
2023/06/21 02:18:32;;;;;;;18.05;12.07;;;;;;;21.10;77.29;98086.59;5060955;28;20508;-73
2023/06/21 02:20:58;;;;;;;12.25;11.05;;;;;;;21.28;76.63;98087.50;5070333;28;20033;-73
2023/06/21 02:23:24;;;;;;;11.77;10.52;;;;;;;21.04;77.01;98081.53;5086454;28;20048;-73
2023/06/21 02:25:49;;;;;;;12.15;10.45;;;;;;;21.16;76.88;98092.75;5070127;28;20025;-73
2023/06/21 02:28:16;;;;;;;13.43;10.40;;;;;;;21.08;76.60;98082.53;5070230;28;20504;-73
2023/06/21 02:30:43;;;;;;;11.57;9.93;;;;;;;21.15;76.07;98085.63;5069969;28;20040;-72
2023/06/21 02:33:08;;;;;;;11.82;10.70;;;;;;;20.95;77.70;98088.91;5043515;28;20036;-73
2023/06/21 02:35:34;;;;;;;16.60;10.93;;;;;;;21.24;75.63;98083.75;5053159;28;20162;-73
2023/06/21 02:38:00;;;;;;;11.70;10.10;;;;;;;21.73;74.77;98077.94;5069935;28;20032;-73
2023/06/21 02:40:26;;;;;;;18.88;11.15;;;;;;;21.42;75.03;98082.72;5073294;28;20024;-73
2023/06/21 02:42:52;;;;;;;11.25;10.07;;;;;;;21.26;75.43;98079.56;5028727;28;20090;-73
2023/06/21 02:45:18;;;;;;;14.95;11.57;;;;;;;20.68;77.19;98078.91;5034987;28;20028;-73
2023/06/21 02:47:44;;;;;;;13.05;11.70;;;;;;;20.70;77.32;98086.81;5057205;28;20032;-73
2023/06/21 02:50:09;;;;;;;13.02;11.65;;;;;;;20.37;78.79;98098.03;5073448;28;20059;-73
2023/06/21 02:52:35;;;;;;;15.50;12.65;;;;;;;20.63;78.00;98099.00;5073719;28;20115;-73
2023/06/21 02:55:02;;;;;;;14.73;13.23;;;;;;;20.72;77.65;98106.47;5069120;28;20467;-74
2023/06/21 02:57:28;;;;;;;15.30;13.75;;;;;;;20.58;78.01;98096.38;5048071;28;20044;-73
2023/06/21 02:59:53;;;;;;;14.98;13.10;;;;;;;20.55;78.17;98113.44;5073725;28;20039;-73
2023/06/21 03:02:18;;;;;;;14.18;12.77;;;;;;;20.47;77.52;98105.97;5090478;28;20059;-73
2023/06/21 03:04:44;;;;;;;14.73;13.20;;;;;;;20.38;78.24;98112.50;5055875;28;20073;-73
2023/06/21 03:07:10;;;;;;;15.75;13.27;;;;;;;20.25;78.70;98111.44;5073635;28;20060;-73
2023/06/21 03:09:36;;;;;;;12.32;11.00;;;;;;;20.93;76.13;98099.38;5056543;28;20081;-73
2023/06/21 03:12:07;;;;;;;12.38;9.90;;;;;;;21.23;74.86;98095.84;5046166;28;20074;-74
2023/06/21 03:14:37;;;;;;;12.05;10.65;;;;;;;21.24;74.75;98091.97;5088293;28;20244;-74
2023/06/21 03:17:09;;;;;;;12.77;10.55;;;;;;;21.33;74.21;98101.84;5062041;28;20025;-74
2023/06/21 03:19:34;;;;;;;9.95;8.93;;;;;;;21.21;74.70;98106.31;5033961;28;20033;-73
2023/06/21 03:22:00;;;;;;;13.40;9.88;;;;;;;20.74;76.62;98109.72;5065960;28;20027;-72
2023/06/21 03:24:32;;;;;;;11.90;10.65;;;;;;;20.63;76.70;98117.38;5053220;28;20029;-73
2023/06/21 03:26:59;;;;;;;14.73;11.50;;;;;;;20.46;77.68;98117.22;5069490;28;20037;-73
2023/06/21 03:29:25;;;;;;;12.85;11.32;;;;;;;20.74;77.33;98120.66;5069494;28;20036;-72
2023/06/21 03:31:51;;;;;;;11.38;10.20;;;;;;;21.39;74.29;98105.25;5053116;28;20033;-73
2023/06/21 03:34:17;;;;;;;9.93;8.77;;;;;;;21.42;73.49;98104.63;5068829;28;20033;-73
2023/06/21 03:36:42;;;;;;;11.75;9.73;;;;;;;21.54;73.13;98104.81;5052526;28;20073;-73
2023/06/21 03:39:09;;;;;;;11.57;10.40;;;;;;;21.49;73.19;98126.91;5072646;28;20081;-72
2023/06/21 03:41:35;;;;;;;12.02;10.82;;;;;;;21.47;73.17;98134.59;5072752;28;20052;-72
2023/06/21 03:44:01;;;;;;;12.23;11.13;;;;;;;20.93;75.13;98141.25;5055419;28;20475;-72
2023/06/21 03:46:26;;;;;;;13.55;12.20;;;;;;;20.91;75.53;98148.16;5072507;28;20028;-74
2023/06/21 03:48:53;;;;;;;11.25;10.25;;;;;;;21.11;75.25;98142.19;5056015;28;20039;-74
2023/06/21 03:51:21;;;;;;;12.77;11.35;;;;;;;20.83;76.07;98140.69;5089425;28;20490;-73
2023/06/21 03:53:47;;;;;;;11.70;10.48;;;;;;;21.23;74.67;98139.66;5080790;28;20108;-74
2023/06/21 03:56:13;;;;;;;11.20;9.65;;;;;;;21.68;73.00;98124.69;5067383;28;20101;-71
2023/06/21 03:58:38;;;;;;;9.45;8.65;;;;;;;21.75;73.22;98130.50;5076808;28;20035;-71
2023/06/21 04:01:04;;;;;;;13.75;9.93;;;;;;;21.07;76.20;98136.53;5075859;28;20044;-73
2023/06/21 04:03:29;;;;;;;12.60;10.13;;;;;;;21.52;74.12;98137.22;5064260;28;20033;-71
2023/06/21 04:05:54;;;;;;;12.13;10.82;;;;;;;20.53;76.88;98154.00;5065333;28;20141;-70
2023/06/21 04:08:20;;;;;;;13.07;11.07;;;;;;;20.94;75.49;98142.03;5052040;28;20057;-71
2023/06/21 04:10:45;;;;;;;13.40;11.98;;;;;;;20.30;77.88;98152.34;5048900;28;20037;-71
2023/06/21 04:13:11;;;;;;;13.18;11.77;;;;;;;20.25;78.12;98152.47;5058920;28;20025;-71
2023/06/21 04:15:38;;;;;;;14.48;11.95;;;;;;;20.03;79.42;98155.09;5075205;28;20476;-74
2023/06/21 04:18:03;;;;;;;16.23;11.77;;;;;;;20.27;78.13;98155.69;5055214;28;20020;-71
2023/06/21 04:20:30;;;;;;;14.20;11.15;;;;;;;20.93;76.47;98156.88;5058294;28;20401;-73
2023/06/21 04:22:56;;;;;;;15.48;11.10;;;;;;;20.86;76.61;98170.19;5064279;28;20029;-78
2023/06/21 04:25:22;;;;;;;11.48;10.18;;;;;;;21.42;74.93;98159.44;5064912;28;20025;-71
2023/06/21 04:27:47;;;;;;;14.13;9.93;;;;;;;21.55;74.54;98164.00;5042356;28;20087;-71
2023/06/21 04:30:16;;;;;;;11.90;8.50;;;;;;;21.91;73.44;98167.38;5057242;28;20124;-74
2023/06/21 04:32:44;;;;;;;13.25;9.15;;;;;;;22.27;72.99;98167.13;5051475;28;20032;-75
2023/06/21 04:35:16;;;;;;;16.63;8.93;;;;;;;22.39;73.21;98171.97;5038274;28;20036;-75
2023/06/21 04:37:46;;;;;;;11.70;8.00;;;;;;;22.75;71.85;98175.28;5055034;28;20112;-75
2023/06/21 04:40:17;;;;;;;17.52;10.10;;;;;;;22.49;73.48;98182.66;5055159;28;20070;-73
2023/06/21 04:42:44;;;;;;;12.43;9.73;;;;;;;21.98;74.64;98186.91;5072349;28;20043;-73
2023/06/21 04:45:16;;;;;;;11.18;9.88;;;;;;;21.53;75.77;98196.41;5070592;28;20516;-73
2023/06/21 04:47:42;;;;;;;14.25;10.48;;;;;;;21.84;75.47;98204.63;5071144;28;20036;-73
2023/06/21 04:50:10;;;;;;;11.23;9.82;;;;;;;21.73;75.96;98198.56;5037631;28;20483;-73
2023/06/21 04:52:37;;;;;;;13.90;10.05;;;;;;;21.83;76.27;98209.25;5061009;28;20037;-73
2023/06/21 04:55:05;;;;;;;18.83;10.43;;;;;;;22.47;74.39;98206.88;5069667;28;20028;-73
2023/06/21 04:57:30;;;;;;;10.48;9.45;;;;;;;22.80;73.90;98199.00;5070791;28;20078;-73
2023/06/21 04:59:56;;;;;;;13.80;9.70;;;;;;;22.68;73.42;98205.94;5066880;28;20021;-73
2023/06/21 05:02:21;;;;;;;13.35;10.10;;;;;;;22.56;73.93;98213.19;5062177;28;20090;-73
2023/06/21 05:04:46;;;;;;;12.20;9.73;;;;;;;22.65;74.47;98214.03;5069538;28;20101;-73
2023/06/21 05:07:12;;;;;;;11.05;10.00;;;;;;;22.52;73.94;98220.47;5070783;28;20068;-73
2023/06/21 05:09:37;;;;;;;10.07;9.05;;;;;;;22.73;73.73;98215.97;5053785;28;20172;-74
2023/06/21 05:12:03;;;;;;;9.98;8.98;;;;;;;22.66;73.84;98226.63;5071804;28;20071;-73
2023/06/21 05:14:28;;;;;;;11.27;9.93;;;;;;;22.87;73.87;98227.59;5066068;28;20033;-74
2023/06/21 05:16:53;;;;;;;11.02;9.77;;;;;;;23.19;73.07;98227.09;5061082;28;20040;-73
2023/06/21 05:19:19;;;;;;;12.95;10.50;;;;;;;23.18;74.39;98233.72;5071855;28;20062;-74
2023/06/21 05:21:44;;;;;;;14.65;10.20;;;;;;;23.00;75.05;98229.38;5060453;28;20041;-74
2023/06/21 05:24:10;;;;;;;10.95;9.90;;;;;;;23.05;75.10;98223.72;5046619;28;20057;-74
2023/06/21 05:26:35;;;;;;;11.50;10.40;;;;;;;22.76;76.06;98231.78;5050463;28;20726;-74
2023/06/21 05:29:01;;;;;;;13.60;11.50;;;;;;;23.02;76.18;98232.59;5100603;28;20477;-74
2023/06/21 05:31:27;;;;;;;13.88;11.73;;;;;;;23.40;74.42;98241.00;5071667;28;20040;-74
2023/06/21 05:33:52;;;;;;;15.18;11.95;;;;;;;23.62;73.98;98237.22;5072984;28;20028;-74
2023/06/21 05:36:17;;;;;;;18.00;11.82;;;;;;;23.63;73.96;98249.84;5060974;28;20395;-74
2023/06/21 05:38:43;;;;;;;13.57;11.88;;;;;;;23.57;74.82;98240.94;5067510;28;20020;-74
2023/06/21 05:41:08;;;;;;;13.45;12.05;;;;;;;23.27;75.87;98256.50;5070179;28;20079;-74
2023/06/21 05:43:34;;;;;;;13.20;11.82;;;;;;;23.50;73.62;98259.09;5036211;28;20056;-74
2023/06/21 05:45:59;;;;;;;13.13;11.77;;;;;;;23.86;73.41;98265.78;5060973;28;20033;-74
2023/06/21 05:48:24;;;;;;;12.90;11.57;;;;;;;23.52;73.04;98281.56;5030274;28;20380;-75
2023/06/21 05:50:50;;;;;;;13.40;11.95;;;;;;;23.62;73.56;98287.53;5043854;28;20040;-74
2023/06/21 05:53:15;;;;;;;13.50;12.18;;;;;;;23.82;72.85;98292.34;5039534;28;20035;-73
2023/06/21 05:55:41;;;;;;;14.98;12.23;;;;;;;23.32;73.90;98305.81;5071424;28;20036;-71
2023/06/21 05:58:06;;;;;;;14.13;12.80;;;;;;;22.64;75.55;98316.72;5071322;28;20032;-72
2023/06/21 06:00:31;;;;;;;15.07;13.02;;;;;;;22.95;76.02;98327.63;5069964;28;20032;-74
2023/06/21 06:02:57;;;;;;;15.07;13.68;;;;;;;22.74;76.33;98338.41;5066767;28;20052;-72
2023/06/21 06:05:22;;;;;;;16.35;14.80;;;;;;;22.95;76.51;98339.41;5059564;28;20408;-72
2023/06/21 06:07:48;;;;;;;16.13;14.57;;;;;;;23.17;75.65;98353.03;5068633;28;20479;-72
2023/06/21 06:10:13;;;;;;;17.50;15.50;;;;;;;22.87;76.97;98353.94;5042749;28;20509;-72
2023/06/21 06:12:39;;;;;;;17.05;15.02;;;;;;;23.10;75.16;98351.88;5073359;28;20029;-72
2023/06/21 06:15:05;;;;;;;17.35;15.63;;;;;;;23.58;74.86;98351.75;5069491;28;20116;-73
2023/06/21 06:17:30;;;;;;;17.33;15.73;;;;;;;23.68;74.51;98345.91;5072679;28;20175;-72
2023/06/21 06:19:56;;;;;;;15.75;14.15;;;;;;;24.11;73.19;98338.38;5065067;28;20037;-72
2023/06/21 06:22:21;;;;;;;14.32;12.90;;;;;;;24.76;71.13;98323.38;5053926;28;20124;-72
2023/06/21 06:24:48;;;;;;;15.23;12.25;;;;;;;25.15;68.81;98311.94;5096084;28;20410;-72
2023/06/21 06:27:14;;;;;;;16.05;12.45;;;;;;;24.60;70.82;98318.41;5057822;28;20043;-72
2023/06/21 06:29:39;;;;;;;18.90;13.90;;;;;;;24.68;70.30;98309.31;5062955;28;20032;-74
2023/06/21 06:32:05;;;;;;;249.48;168.48;;;;;;;25.01;70.03;98294.84;5056150;28;20625;-74
2023/06/21 06:34:30;;;;;;;23.20;18.40;;;;;;;25.05;69.18;98298.53;5073556;28;20036;-74
2023/06/21 06:36:56;;;;;;;14.63;13.02;;;;;;;24.87;68.43;98272.25;5090325;28;20473;-74
2023/06/21 06:39:21;;;;;;;16.02;13.50;;;;;;;24.67;69.09;98273.81;5073721;28;20037;-74
2023/06/21 06:41:46;;;;;;;19.02;12.98;;;;;;;24.63;69.16;98251.66;5027435;28;20526;-74
2023/06/21 06:44:15;;;;;;;15.63;13.13;;;;;;;24.84;68.76;98250.88;5057037;28;20398;-74
2023/06/21 06:46:40;;;;;;;14.52;12.18;;;;;;;24.87;68.55;98255.72;5073753;28;20029;-74
2023/06/21 06:49:05;;;;;;;19.75;14.73;;;;;;;24.90;68.52;98266.09;5056974;28;20035;-74
2023/06/21 06:51:31;;;;;;;19.35;14.57;;;;;;;24.73;69.11;98278.81;5058367;28;20225;-74
2023/06/21 06:53:56;;;;;;;15.27;13.68;;;;;;;25.05;69.56;98284.75;5078191;28;20044;-73
2023/06/21 06:56:21;;;;;;;16.55;14.85;;;;;;;24.30;70.90;98297.53;5056539;28;20107;-73
2023/06/21 06:58:47;;;;;;;21.52;14.82;;;;;;;24.28;72.64;98305.31;5066270;28;20045;-73
2023/06/21 07:01:14;;;;;;;18.63;16.75;;;;;;;23.91;75.02;98333.56;5068477;28;20032;-73
2023/06/21 07:03:40;;;;;;;20.70;18.02;;;;;;;24.05;74.57;98325.94;5072646;28;20051;-73
2023/06/21 07:06:05;;;;;;;18.27;16.27;;;;;;;24.26;72.77;98329.59;5074719;28;20025;-74
2023/06/21 07:08:30;;;;;;;15.60;13.77;;;;;;;23.96;72.56;98341.66;5073526;28;20541;-74
2023/06/21 07:10:56;;;;;;;15.57;13.57;;;;;;;24.22;72.63;98350.69;5073315;28;20021;-75
2023/06/21 07:13:23;;;;;;;16.52;13.18;;;;;;;24.51;69.38;98358.97;5064550;28;20548;-75
2023/06/21 07:15:48;;;;;;;16.08;13.43;;;;;;;24.33;68.86;98345.59;5068416;28;20025;-75
2023/06/21 07:18:14;;;;;;;17.98;13.73;;;;;;;24.67;68.28;98334.41;5073885;28;20482;-75
2023/06/21 07:20:39;;;;;;;26.45;19.77;;;;;;;24.88;67.94;98329.00;5073172;28;20107;-75
2023/06/21 07:23:05;;;;;;;27.05;17.85;;;;;;;25.49;68.03;98328.19;5055929;28;20101;-74
2023/06/21 07:25:30;;;;;;;27.77;19.25;;;;;;;25.77;65.64;98307.16;5072835;28;20029;-75
2023/06/21 07:27:56;;;;;;;15.23;13.25;;;;;;;26.12;62.38;98301.28;5106092;28;20474;-75
2023/06/21 07:30:22;;;;;;;26.48;18.85;;;;;;;26.02;64.91;98294.22;5073797;28;20095;-75
2023/06/21 07:32:48;;;;;;;17.55;14.68;;;;;;;25.36;65.04;98287.91;5072689;28;20047;-75
2023/06/21 07:35:14;;;;;;;29.50;20.75;;;;;;;24.96;65.31;98286.78;5062696;28;20024;-75
2023/06/21 07:37:41;;;;;;;28.27;19.80;;;;;;;25.09;64.81;98291.19;5072644;28;20036;-76
2023/06/21 07:40:08;;;;;;;24.05;18.65;;;;;;;24.73;67.54;98287.09;5106143;28;20429;-75
2023/06/21 07:42:33;;;;;;;19.50;15.27;;;;;;;24.76;68.19;98282.03;5052571;28;20029;-76
2023/06/21 07:44:59;;;;;;;17.38;15.07;;;;;;;24.43;67.54;98268.16;5068414;28;20509;-75
2023/06/21 07:47:24;;;;;;;17.63;13.73;;;;;;;24.90;67.10;98277.13;5052432;28;20051;-75
2023/06/21 07:49:50;;;;;;;17.52;14.55;;;;;;;24.86;66.65;98281.66;5085880;28;20025;-75
2023/06/21 07:52:15;;;;;;;15.75;14.13;;;;;;;24.71;68.17;98286.59;5053630;28;20552;-75
2023/06/21 07:54:43;;;;;;;15.95;13.88;;;;;;;24.46;68.95;98289.50;5053825;28;20494;-75
2023/06/21 07:57:08;;;;;;;15.18;13.05;;;;;;;24.99;66.60;98283.34;5055856;28;20059;-75
2023/06/21 07:59:34;;;;;;;20.73;14.60;;;;;;;24.76;68.70;98293.91;5072101;28;20470;-75
2023/06/21 08:01:59;;;;;;;16.80;13.85;;;;;;;25.20;66.77;98306.22;5038921;28;20115;-75
2023/06/21 08:04:24;;;;;;;19.58;14.68;;;;;;;25.11;66.45;98295.25;5072628;28;20393;-75
2023/06/21 08:06:50;;;;;;;15.57;13.63;;;;;;;25.12;67.27;98298.81;5055376;28;20041;-74
2023/06/21 08:09:15;;;;;;;19.20;13.70;;;;;;;25.33;66.94;98294.91;5073075;28;20067;-75
2023/06/21 08:11:41;;;;;;;18.85;13.48;;;;;;;25.31;65.63;98293.63;5071900;28;20037;-75
2023/06/21 08:14:06;;;;;;;16.40;13.10;;;;;;;25.57;64.82;98280.44;5054578;28;20036;-75
2023/06/21 08:16:32;;;;;;;14.13;12.55;;;;;;;25.39;64.80;98290.00;5071756;28;20032;-76
2023/06/21 08:18:57;;;;;;;15.00;12.25;;;;;;;25.57;62.01;98283.19;5072910;28;20691;-76
2023/06/21 08:21:22;;;;;;;16.52;11.60;;;;;;;26.26;61.83;98269.41;5055076;28;20028;-75
2023/06/21 08:23:48;;;;;;;14.77;13.20;;;;;;;26.08;62.49;98279.84;5054201;28;20439;-75
2023/06/21 08:26:13;;;;;;;13.63;11.20;;;;;;;25.74;60.61;98280.22;5055116;28;20161;-75
2023/06/21 08:28:39;;;;;;;14.48;11.50;;;;;;;25.80;63.00;98289.94;5072524;28;20024;-75
2023/06/21 08:31:04;;;;;;;14.77;11.27;;;;;;;26.25;60.56;98287.16;5088460;28;20487;-75
2023/06/21 08:33:29;;;;;;;13.88;11.35;;;;;;;25.93;61.86;98282.47;5071983;28;20059;-75
2023/06/21 08:35:55;;;;;;;17.38;13.18;;;;;;;25.89;60.54;98282.34;5054619;28;20040;-74
2023/06/21 08:38:20;;;;;;;17.52;12.30;;;;;;;26.58;60.30;98270.47;5054433;28;20044;-75
2023/06/21 08:40:46;;;;;;;14.23;11.80;;;;;;;26.07;61.24;98286.50;5071988;28;20521;-75
2023/06/21 08:43:11;;;;;;;15.18;11.55;;;;;;;26.94;59.00;98289.78;5071718;28;20114;-75
2023/06/21 08:45:37;;;;;;;15.07;12.10;;;;;;;25.98;59.31;98296.84;5064634;28;20032;-74
2023/06/21 08:48:05;;;;;;;16.55;12.65;;;;;;;26.95;59.75;98290.59;5065960;28;20582;-75
2023/06/21 08:50:34;;;;;;;16.45;12.60;;;;;;;26.53;59.06;98290.84;5071091;28;20478;-75
2023/06/21 08:53:01;;;;;;;15.25;12.95;;;;;;;25.39;62.28;98303.78;5053715;28;20069;-75
2023/06/21 08:55:28;;;;;;;16.25;13.65;;;;;;;26.63;59.42;98292.31;5054522;28;20479;-74
2023/06/21 08:57:56;;;;;;;17.17;13.07;;;;;;;27.19;56.87;98293.28;5058732;28;20048;-75
2023/06/21 09:00:37;;;;;;;15.43;12.35;;;;;;;26.73;57.36;98300.94;5062927;28;20052;-75
2023/06/21 09:03:23;;;;;;;14.55;10.35;;;;;;;27.16;56.42;98303.09;5063906;28;20094;-75
2023/06/21 09:05:52;;;;;;;12.88;10.93;;;;;;;26.91;57.26;98312.56;5064037;28;20139;-75
2023/06/21 09:08:18;;;;;;;13.77;10.95;;;;;;;27.53;56.42;98314.06;5070885;28;20426;-75
2023/06/21 09:10:48;;;;;;;13.65;11.27;;;;;;;27.19;55.38;98309.88;5054048;28;20040;-74
2023/06/21 09:13:13;;;;;;;13.68;10.43;;;;;;;26.91;54.99;98311.78;5071342;28;20421;-75
2023/06/21 09:15:39;;;;;;;13.65;10.40;;;;;;;27.27;53.71;98309.72;5071785;28;20036;-75
2023/06/21 09:18:05;;;;;;;13.43;11.00;;;;;;;27.08;56.55;98317.84;5080101;28;20471;-75
2023/06/21 09:20:31;;;;;;;11.63;9.32;;;;;;;26.95;56.75;98312.69;5084884;28;20036;-75
2023/06/21 09:22:58;;;;;;;11.30;8.40;;;;;;;27.32;53.92;98306.72;5053561;28;20024;-75
2023/06/21 09:25:24;;;;;;;12.38;9.13;;;;;;;26.96;55.76;98315.09;5056248;28;20168;-75
2023/06/21 09:27:51;;;;;;;12.88;9.23;;;;;;;27.18;53.13;98317.38;5058308;28;20107;-75
2023/06/21 09:30:18;;;;;;;10.32;8.50;;;;;;;26.69;55.47;98315.81;5070468;28;20086;-76
2023/06/21 09:32:43;;;;;;;13.32;8.45;;;;;;;26.76;54.23;98327.13;5070557;28;20024;-76
2023/06/21 09:35:09;;;;;;;12.50;8.80;;;;;;;27.11;53.61;98339.28;5059988;28;20075;-75
2023/06/21 09:37:36;;;;;;;12.57;9.07;;;;;;;27.62;54.00;98345.13;5070552;28;20036;-76
2023/06/21 09:40:03;;;;;;;13.52;9.35;;;;;;;27.80;52.84;98349.19;5057218;28;20044;-75
2023/06/21 09:42:28;;;;;;;11.00;9.02;;;;;;;28.34;52.20;98341.19;5058205;28;20021;-75
2023/06/21 09:44:54;;;;;;;11.48;8.40;;;;;;;26.89;53.70;98350.81;5050838;28;20033;-75
2023/06/21 09:47:20;;;;;;;11.55;8.57;;;;;;;27.32;53.71;98355.72;5070454;28;20386;-75
2023/06/21 09:49:46;;;;;;;11.02;8.90;;;;;;;26.89;53.79;98364.63;5071447;28;20379;-75
2023/06/21 09:52:13;;;;;;;11.07;9.35;;;;;;;27.09;53.97;98366.47;5070181;28;20050;-75
2023/06/21 09:54:42;;;;;;;11.57;9.73;;;;;;;28.05;53.20;98353.50;5055982;28;20462;-74
2023/06/21 09:57:07;;;;;;;14.32;9.43;;;;;;;26.84;54.33;98356.56;5072884;28;20070;-74
2023/06/21 09:59:36;;;;;;;11.43;9.18;;;;;;;27.20;53.84;98359.31;5080083;28;20379;-75
2023/06/21 10:02:02;;;;;;;10.43;9.38;;;;;;;27.15;53.46;98345.72;5070925;28;20197;-74
2023/06/21 10:04:27;;;;;;;11.18;9.30;;;;;;;27.85;52.18;98351.72;5056062;28;20582;-74
2023/06/21 10:06:55;;;;;;;12.40;8.48;;;;;;;27.50;51.92;98346.00;5039275;28;20017;-74
2023/06/21 10:09:21;;;;;;;9.75;7.90;;;;;;;28.29;50.44;98339.50;5059094;28;20138;-74
2023/06/21 10:11:49;;;;;;;10.88;7.97;;;;;;;27.81;50.67;98334.22;5060442;28;20024;-74
2023/06/21 10:14:19;;;;;;;12.60;8.27;;;;;;;28.37;49.73;98319.13;5058738;28;20032;-75
2023/06/21 10:16:48;;;;;;;12.00;8.50;;;;;;;28.18;49.08;98316.25;5069998;28;20157;-74
2023/06/21 10:19:14;;;;;;;10.88;8.80;;;;;;;28.68;49.35;98327.44;5100438;28;20386;-75
2023/06/21 10:21:39;;;;;;;10.93;8.85;;;;;;;29.21;48.03;98327.91;5043606;28;20033;-75
2023/06/21 10:24:05;;;;;;;9.55;8.40;;;;;;;28.35;50.05;98343.63;5086005;28;20457;-74
2023/06/21 10:26:32;;;;;;;9.85;8.40;;;;;;;28.73;51.95;98345.75;5060098;28;20060;-74
2023/06/21 10:28:58;;;;;;;11.68;8.85;;;;;;;29.79;48.22;98350.94;5064287;28;20078;-75
2023/06/21 10:31:25;;;;;;;11.15;7.65;;;;;;;28.51;48.59;98344.44;5049920;28;20041;-75
2023/06/21 10:33:51;;;;;;;12.82;8.15;;;;;;;29.04;48.87;98342.13;5062663;28;20021;-75
2023/06/21 10:36:22;;;;;;;9.35;7.50;;;;;;;28.43;48.12;98345.41;5062861;28;20039;-75
2023/06/21 10:38:47;;;;;;;9.38;7.32;;;;;;;28.50;48.17;98340.03;5052804;28;20093;-74
2023/06/21 10:41:17;;;;;;;8.95;7.90;;;;;;;29.20;47.43;98343.72;5052857;28;20108;-74
2023/06/21 10:43:44;;;;;;;9.32;8.15;;;;;;;28.84;49.77;98351.56;5068507;28;20044;-74
2023/06/21 10:46:11;;;;;;;10.85;8.13;;;;;;;28.20;48.73;98362.97;5069649;28;20027;-74
2023/06/21 10:48:36;;;;;;;13.23;7.72;;;;;;;29.13;44.60;98362.16;5067598;28;20123;-75
2023/06/21 10:51:02;;;;;;;9.07;5.75;;;;;;;27.77;46.21;98372.09;5052878;28;20115;-75
2023/06/21 10:53:32;;;;;;;8.77;6.60;;;;;;;28.39;47.42;98372.22;5069040;28;20049;-75
2023/06/21 10:56:00;;;;;;;8.80;7.20;;;;;;;28.25;48.45;98371.03;5069584;28;20526;-75
2023/06/21 10:58:26;;;;;;;8.88;7.68;;;;;;;28.58;47.34;98380.63;5097514;28;20036;-74
2023/06/21 11:00:52;;;;;;;10.40;7.28;;;;;;;28.52;47.33;98372.94;5045573;28;20031;-75
2023/06/21 11:03:24;;;;;;;8.82;6.57;;;;;;;27.74;47.53;98383.84;5054371;28;20037;-75
2023/06/21 11:05:53;;;;;;;7.70;6.88;;;;;;;28.56;46.51;98382.97;5075746;28;20128;-74
2023/06/21 11:08:30;;;;;;;8.52;7.53;;;;;;;28.69;46.59;98386.47;5072942;28;20104;-74
2023/06/21 11:10:56;;;;;;;13.95;7.88;;;;;;;28.65;47.23;98386.38;5075997;28;20033;-74
2023/06/21 11:13:39;;;;;;;9.18;7.40;;;;;;;29.41;46.42;98385.00;5072300;28;20100;-74
2023/06/21 11:16:32;;;;;;;9.20;7.40;;;;;;;29.37;45.67;98395.25;5074062;28;20044;-74